Time;durP1;ratioP1;P1;durP2;ratioP2;P2;SDS_P1;SDS_P2;PMS_P1;PMS_P2;Temp;Humidity;BMP_temperature;BMP_pressure;BME280_temperature;BME280_humidity;BME280_pressure;Samples;Min_cycle;Max_cycle;Signal;HPM_P1;HPM_P2
2023/04/10 00:00:14;;;;;;;7.93;4.30;;;;;;;7.77;70.31;102027.06;5053076;28;20044;-80
2023/04/10 00:02:41;;;;;;;7.18;3.90;;;;;;;7.77;70.69;102022.72;5074503;22;20526;-80
2023/04/10 00:05:07;;;;;;;6.05;3.47;;;;;;;7.74;71.99;102022.72;5073136;28;20427;-80
2023/04/10 00:07:32;;;;;;;7.13;3.92;;;;;;;7.70;71.03;102006.28;5072906;28;20028;-80
2023/04/10 00:09:58;;;;;;;8.47;4.30;;;;;;;7.71;70.20;102007.16;5072303;28;20028;-80
2023/04/10 00:12:24;;;;;;;8.47;4.13;;;;;;;7.64;70.53;101992.41;5072360;28;20491;-80
2023/04/10 00:14:49;;;;;;;7.53;4.18;;;;;;;7.73;70.31;102000.28;5072369;28;20052;-80
2023/04/10 00:17:14;;;;;;;8.00;4.03;;;;;;;7.72;70.42;101986.50;5073060;28;20021;-80
2023/04/10 00:19:40;;;;;;;7.85;4.18;;;;;;;7.68;72.66;101989.00;5072227;28;20025;-80
2023/04/10 00:22:05;;;;;;;7.43;4.00;;;;;;;7.67;71.46;101992.44;5072344;28;20056;-80
2023/04/10 00:24:30;;;;;;;7.18;3.75;;;;;;;7.66;71.08;101986.41;5072547;28;20020;-80
2023/04/10 00:26:56;;;;;;;6.97;3.73;;;;;;;7.66;70.96;101985.53;5060874;28;20029;-80
2023/04/10 00:29:22;;;;;;;8.07;3.95;;;;;;;7.68;72.14;101984.72;5051717;28;20106;-80
2023/04/10 00:31:47;;;;;;;7.40;3.93;;;;;;;7.69;71.59;101973.53;5052584;28;20029;-80
2023/04/10 00:34:13;;;;;;;8.27;4.40;;;;;;;7.70;70.52;101969.22;5052546;28;20036;-80
2023/04/10 00:36:38;;;;;;;7.70;3.90;;;;;;;7.68;73.40;101971.81;5051835;28;20025;-80
2023/04/10 00:39:03;;;;;;;9.07;4.40;;;;;;;7.71;71.55;101968.38;5052126;28;20358;-80
2023/04/10 00:41:29;;;;;;;7.77;4.10;;;;;;;7.72;72.46;101962.38;5052169;28;20024;-80
2023/04/10 00:43:56;;;;;;;10.23;4.93;;;;;;;7.76;71.09;101964.16;5051941;28;20020;-80
2023/04/10 00:46:22;;;;;;;7.95;4.38;;;;;;;7.70;71.94;101957.19;5051972;28;20086;-80
2023/04/10 00:48:48;;;;;;;7.75;4.25;;;;;;;7.70;71.61;101956.31;5052648;28;20108;-80
2023/04/10 00:51:14;;;;;;;9.20;4.50;;;;;;;7.70;71.34;101954.63;5051980;28;20117;-80
2023/04/10 00:53:39;;;;;;;8.83;4.63;;;;;;;7.70;71.43;101949.44;5051964;28;20401;-80
2023/04/10 00:56:06;;;;;;;7.57;3.97;;;;;;;7.71;71.27;101955.47;5052434;28;20025;-80
2023/04/10 00:58:31;;;;;;;8.48;4.32;;;;;;;7.69;71.02;101950.28;5051780;28;20036;-80
2023/04/10 01:00:57;;;;;;;6.10;3.60;;;;;;;7.69;71.11;101952.88;5059927;28;20457;-80
2023/04/10 01:03:23;;;;;;;8.00;4.27;;;;;;;7.72;70.85;101955.47;5073173;28;20036;-80
2023/04/10 01:06:30;;;;;;;7.30;4.05;;;;;;;7.71;71.41;101958.06;5076181;28;20021;-80
2023/04/10 01:09:29;;;;;;;8.20;4.22;;;;;;;7.69;71.47;101957.16;5076286;28;20089;-80
2023/04/10 01:12:10;;;;;;;8.00;4.03;;;;;;;7.67;71.32;101953.69;5064736;28;20036;-79
2023/04/10 01:15:09;;;;;;;7.35;4.30;;;;;;;7.65;71.68;101955.41;5075883;28;20031;-80
2023/04/10 01:17:52;;;;;;;7.80;4.07;;;;;;;7.61;71.84;101951.00;5076231;28;20024;-80
2023/04/10 01:20:22;;;;;;;7.78;4.35;;;;;;;7.61;72.49;101943.25;5075695;28;20016;-80
2023/04/10 01:23:05;;;;;;;7.57;4.32;;;;;;;7.58;72.09;101941.50;5075684;28;20032;-80
2023/04/10 01:25:56;;;;;;;7.22;4.05;;;;;;;7.57;72.08;101940.63;5075612;28;20021;-80
2023/04/10 01:28:59;;;;;;;8.10;4.35;;;;;;;7.61;71.82;101940.69;5066265;28;20123;-80
2023/04/10 01:31:36;;;;;;;8.93;4.60;;;;;;;7.59;71.75;101945.84;5074879;28;20032;-80
2023/04/10 01:34:08;;;;;;;8.68;4.32;;;;;;;7.58;71.34;101938.94;5075198;28;20456;-80
2023/04/10 01:36:41;;;;;;;7.68;4.00;;;;;;;7.56;72.11;101935.44;5075350;28;20108;-80
2023/04/10 01:39:08;;;;;;;6.45;3.58;;;;;;;7.52;71.97;101936.25;5075462;28;20026;-80
2023/04/10 01:41:34;;;;;;;;;;;;;;;7.49;72.15;101937.06;5075955;28;20066;-80
2023/04/10 01:44:02;;;;;;;7.40;4.10;;;;;;;7.45;73.09;101937.84;5075207;28;19919;-80
2023/04/10 01:46:28;;;;;;;6.68;3.70;;;;;;;7.42;73.14;101923.19;5074823;28;20923;-80
2023/04/10 01:48:55;;;;;;;6.90;3.90;;;;;;;7.39;73.76;101923.13;5075587;28;20048;-80
2023/04/10 01:51:22;;;;;;;6.18;3.63;;;;;;;7.36;73.00;101925.69;5075365;28;20075;-80
2023/04/10 01:53:48;;;;;;;;;;;;;;;7.33;73.60;101925.63;5075422;28;20032;-80
2023/04/10 01:56:15;;;;;;;6.53;3.72;;;;;;;7.30;72.93;101920.41;5075204;28;19912;-80
2023/04/10 01:58:41;;;;;;;5.95;3.50;;;;;;;7.26;73.35;101916.91;5074344;28;20028;-79
2023/04/10 02:01:07;;;;;;;4.80;3.20;;;;;;;7.22;74.50;101911.69;5074227;28;20044;-78
2023/04/10 02:03:38;;;;;;;5.90;3.40;;;;;;;7.18;72.85;101908.19;5074379;28;20340;-79
2023/04/10 02:06:27;;;;;;;5.03;3.10;;;;;;;7.17;73.64;101896.13;5075392;28;20024;-79
2023/04/10 02:09:09;;;;;;;5.20;3.20;;;;;;;7.13;74.22;101893.47;5074541;28;20037;-79
2023/04/10 02:11:57;;;;;;;5.43;3.22;;;;;;;7.08;75.06;101888.25;5074657;28;20123;-79
2023/04/10 02:14:27;;;;;;;5.57;3.50;;;;;;;7.05;74.14;101889.03;5072755;28;20078;-79
2023/04/10 02:16:54;;;;;;;6.30;3.70;;;;;;;7.06;73.33;101887.34;5075100;28;20027;-79
2023/04/10 02:19:22;;;;;;;7.80;3.80;;;;;;;7.04;74.83;101886.44;5074538;28;20082;-79
2023/04/10 02:21:48;;;;;;;6.93;3.90;;;;;;;7.03;73.50;101888.16;5074184;28;20438;-79
2023/04/10 02:24:13;;;;;;;5.37;3.43;;;;;;;7.02;74.59;101882.97;5074940;28;20032;-79
2023/04/10 02:26:57;;;;;;;5.23;3.43;;;;;;;6.98;74.51;101879.47;5074666;28;20583;-79
2023/04/10 02:29:25;;;;;;;6.30;3.70;;;;;;;6.97;73.47;101874.28;5073819;28;20436;-79
2023/04/10 02:31:50;;;;;;;8.50;4.30;;;;;;;7.01;73.36;101881.22;5074360;28;20044;-79
2023/04/10 02:34:16;;;;;;;7.10;4.10;;;;;;;7.00;73.69;101882.06;5074002;28;20473;-79
2023/04/10 02:36:41;;;;;;;6.55;3.60;;;;;;;7.02;73.61;101885.53;5074010;28;20031;-79
2023/04/10 02:39:09;;;;;;;8.80;4.20;;;;;;;7.02;73.60;101872.63;5074205;28;20061;-79
2023/04/10 02:41:35;;;;;;;6.88;3.65;;;;;;;6.99;74.08;101877.75;5074371;28;20024;-79
2023/04/10 02:44:00;;;;;;;6.00;3.50;;;;;;;6.94;74.20;101873.41;5073740;28;20094;-79
2023/04/10 02:46:25;;;;;;;7.05;3.80;;;;;;;6.94;75.33;101878.56;5073451;28;20021;-79
2023/04/10 02:48:52;;;;;;;6.73;3.60;;;;;;;6.95;74.25;101882.00;5074638;28;20032;-79
2023/04/10 02:51:17;;;;;;;5.80;3.30;;;;;;;6.95;74.52;101887.16;5073559;28;20036;-79
2023/04/10 02:53:43;;;;;;;5.67;3.30;;;;;;;6.91;73.95;101875.91;5074022;28;20035;-79
2023/04/10 02:56:10;;;;;;;5.53;3.07;;;;;;;6.91;74.68;101875.91;5068882;28;20102;-79
2023/04/10 02:58:36;;;;;;;5.72;3.40;;;;;;;6.90;73.89;101874.19;5053373;28;20114;-79
2023/04/10 03:01:01;;;;;;;5.73;3.40;;;;;;;6.92;74.16;101871.63;5053511;28;20071;-79
2023/04/10 03:03:27;;;;;;;6.17;3.30;;;;;;;6.90;74.01;101874.19;5054117;28;20508;-79
2023/04/10 03:05:52;;;;;;;5.70;3.40;;;;;;;6.90;75.36;101870.75;5053888;28;20492;-79
2023/04/10 03:08:18;;;;;;;5.25;3.17;;;;;;;6.86;75.41;101877.56;5053917;28;20021;-79
2023/04/10 03:10:44;;;;;;;5.13;3.28;;;;;;;6.81;75.50;101881.78;5053196;28;20025;-79
2023/04/10 03:13:10;;;;;;;6.07;3.58;;;;;;;6.79;75.72;101879.16;5053700;28;20053;-79
2023/04/10 03:15:37;;;;;;;6.00;3.50;;;;;;;6.73;75.07;101878.19;5053826;28;20053;-79
2023/04/10 03:18:05;;;;;;;4.97;3.30;;;;;;;6.75;74.88;101884.25;5053607;28;20020;-79
2023/04/10 03:20:32;;;;;;;4.78;3.08;;;;;;;6.73;74.54;101880.78;5053314;28;20392;-79
2023/04/10 03:22:58;;;;;;;5.05;3.28;;;;;;;6.73;74.45;101888.53;5054053;28;20033;-79
2023/04/10 03:25:23;;;;;;;6.35;3.50;;;;;;;6.73;74.25;101885.94;5052872;28;20020;-79
2023/04/10 03:27:49;;;;;;;6.63;4.07;;;;;;;6.72;74.25;101879.03;5053242;28;20032;-79
2023/04/10 03:30:14;;;;;;;7.23;3.80;;;;;;;6.74;74.12;101887.69;5053849;28;20017;-79
2023/04/10 03:32:41;;;;;;;7.13;3.80;;;;;;;6.73;74.70;101888.53;5052657;28;20024;-79
2023/04/10 03:35:07;;;;;;;5.75;3.38;;;;;;;6.71;74.04;101878.16;5053034;28;20473;-79
2023/04/10 03:37:33;;;;;;;6.03;3.43;;;;;;;6.67;74.35;101868.63;5053167;28;20029;-79
2023/04/10 03:39:58;;;;;;;6.50;3.50;;;;;;;6.64;75.05;101864.28;5053236;28;20047;-79
2023/04/10 03:42:23;;;;;;;6.13;3.53;;;;;;;6.61;74.20;101863.34;5053130;28;20028;-79
2023/04/10 03:44:49;;;;;;;6.40;3.67;;;;;;;6.60;74.07;101862.50;5053472;28;20032;-79
2023/04/10 03:47:17;;;;;;;7.10;4.03;;;;;;;6.59;74.19;101863.34;5053162;28;20060;-79
2023/04/10 03:49:42;;;;;;;5.57;3.40;;;;;;;6.54;75.12;101861.53;5052917;28;20120;-79
2023/04/10 03:52:08;;;;;;;7.50;4.03;;;;;;;6.52;74.55;101856.34;5053380;28;20041;-79
2023/04/10 03:54:33;;;;;;;7.17;3.63;;;;;;;6.49;74.24;101846.81;5052280;28;20473;-79
2023/04/10 03:57:00;;;;;;;8.07;4.15;;;;;;;6.44;74.82;101843.31;5053065;28;20045;-79
2023/04/10 03:59:25;;;;;;;;;;;;;;;6.43;75.46;101848.41;5053220;28;20537;-79
2023/04/10 04:01:51;;;;;;;6.80;3.77;;;;;;;6.34;75.29;101838.81;5066615;28;20012;-79
2023/04/10 04:04:17;;;;;;;7.97;4.10;;;;;;;6.40;74.60;101848.38;5072397;28;20089;-79
2023/04/10 04:06:42;;;;;;;7.37;3.90;;;;;;;6.34;75.09;101839.69;5072659;28;20119;-79
2023/04/10 04:09:07;;;;;;;7.13;3.70;;;;;;;6.32;75.12;101836.19;5072187;28;20037;-79
2023/04/10 04:11:33;;;;;;;6.70;3.73;;;;;;;6.29;74.71;101833.59;5072011;28;20115;-79
2023/04/10 04:13:58;;;;;;;7.27;4.03;;;;;;;6.28;74.96;101836.13;5072240;28;20025;-79
2023/04/10 04:16:23;;;;;;;8.00;3.90;;;;;;;6.22;75.31;101828.28;5071953;28;20028;-79
2023/04/10 04:18:51;;;;;;;5.97;3.60;;;;;;;6.24;75.36;101834.34;5072844;28;20032;-79
2023/04/10 04:21:16;;;;;;;7.50;3.92;;;;;;;6.20;75.18;101830.81;5072121;28;20488;-79
2023/04/10 04:23:41;;;;;;;6.23;3.57;;;;;;;6.16;75.66;101837.63;5072300;28;20029;-79
2023/04/10 04:26:07;;;;;;;7.50;3.70;;;;;;;6.11;75.81;101833.22;5072645;28;20338;-79
2023/04/10 04:28:32;;;;;;;8.63;4.50;;;;;;;6.18;75.25;101830.81;5071627;28;20039;-79
2023/04/10 04:30:57;;;;;;;8.87;4.60;;;;;;;6.11;75.80;101828.97;5072209;28;20029;-79
2023/04/10 04:33:22;;;;;;;8.40;4.20;;;;;;;6.06;76.48;101824.56;5071998;28;20054;-79
2023/04/10 04:35:48;;;;;;;8.07;4.10;;;;;;;6.02;76.20;101823.63;5072031;28;20040;-79
2023/04/10 04:38:15;;;;;;;9.30;4.80;;;;;;;5.99;76.45;101829.56;5071144;28;20032;-79
2023/04/10 04:40:40;;;;;;;10.15;4.68;;;;;;;5.97;76.84;101820.06;5071788;28;20032;-79
2023/04/10 04:43:06;;;;;;;8.68;4.28;;;;;;;5.88;77.46;101808.72;5071805;28;20025;-79
2023/04/10 04:45:31;;;;;;;6.80;3.90;;;;;;;5.90;76.75;101819.06;5072146;28;20447;-79
2023/04/10 04:47:56;;;;;;;7.07;3.83;;;;;;;5.91;76.63;101813.06;5072397;28;20025;-79
2023/04/10 04:50:22;;;;;;;8.18;3.88;;;;;;;5.96;77.29;101816.63;5071558;28;20021;-79
2023/04/10 04:52:48;;;;;;;9.00;4.10;;;;;;;5.94;76.46;101814.81;5072157;28;20111;-79
2023/04/10 04:55:13;;;;;;;7.40;3.93;;;;;;;5.95;77.07;101812.31;5072223;28;20141;-79
2023/04/10 04:57:38;;;;;;;8.95;4.25;;;;;;;5.93;76.23;101808.81;5071397;28;20685;-79
2023/04/10 05:00:05;;;;;;;7.73;4.23;;;;;;;5.91;76.46;101804.47;5072133;28;20024;-79
2023/04/10 05:02:33;;;;;;;10.32;4.55;;;;;;;5.98;76.66;101808.91;5050550;28;20049;-79
2023/04/10 05:04:58;;;;;;;6.95;3.72;;;;;;;5.97;76.83;101807.16;5051426;28;20406;-79
2023/04/10 05:07:24;;;;;;;7.97;4.03;;;;;;;5.96;76.34;101800.28;5051961;28;20102;-79
2023/04/10 05:09:49;;;;;;;7.43;4.10;;;;;;;5.94;76.61;101796.78;5052051;28;20099;-79
2023/04/10 05:12:15;;;;;;;7.95;4.45;;;;;;;5.97;76.62;101799.44;5051342;28;20473;-79
2023/04/10 05:14:40;;;;;;;9.43;5.03;;;;;;;6.01;76.58;101794.41;5051647;28;20032;-79
2023/04/10 05:17:05;;;;;;;8.85;4.47;;;;;;;5.97;77.10;101782.25;5052347;28;20029;-79
2023/04/10 05:19:31;;;;;;;7.53;4.20;;;;;;;6.04;75.92;101788.44;5051367;28;20361;-79
2023/04/10 05:21:56;;;;;;;8.27;4.50;;;;;;;6.02;76.38;101779.81;5052344;28;20103;-79
2023/04/10 05:24:24;;;;;;;9.13;4.83;;;;;;;6.03;76.03;101781.53;5051306;28;20068;-79
2023/04/10 05:26:49;;;;;;;8.15;4.18;;;;;;;6.09;76.61;101789.41;5051451;28;20473;-79
2023/04/10 05:29:15;;;;;;;9.33;4.63;;;;;;;6.10;76.19;101780.81;5052379;28;20108;-80
2023/04/10 05:31:43;;;;;;;8.07;4.43;;;;;;;6.12;76.14;101784.31;5051033;28;20094;-80
2023/04/10 05:34:08;;;;;;;8.13;4.40;;;;;;;6.14;77.50;101774.88;5051319;28;20384;-80
2023/04/10 05:36:34;;;;;;;9.17;4.80;;;;;;;6.20;76.36;101781.84;5051378;28;20108;-80
2023/04/10 05:38:59;;;;;;;9.50;4.87;;;;;;;6.23;76.87;101788.78;5051086;28;20499;-80
2023/04/10 05:41:24;;;;;;;10.23;5.03;;;;;;;6.25;76.01;101785.38;5051519;28;20033;-80
2023/04/10 05:43:49;;;;;;;8.13;4.43;;;;;;;6.29;77.22;101788.88;5051868;28;20439;-80
2023/04/10 05:46:15;;;;;;;7.60;4.17;;;;;;;6.30;76.90;101788.94;5051176;28;20082;-80
2023/04/10 05:48:40;;;;;;;6.60;3.83;;;;;;;6.36;77.63;101782.97;5052773;28;20552;-80
2023/04/10 05:51:09;;;;;;;7.90;4.28;;;;;;;6.42;76.60;101785.69;5064038;28;20065;-80
2023/04/10 05:53:34;;;;;;;7.32;3.95;;;;;;;6.44;77.49;101784.00;5074444;28;20059;-79
2023/04/10 05:56:00;;;;;;;8.00;4.40;;;;;;;6.50;76.09;101788.38;5075364;28;20021;-80
2023/04/10 05:58:26;;;;;;;9.00;4.70;;;;;;;6.54;76.57;101792.75;5075483;28;20039;-83
2023/04/10 06:00:52;;;;;;;8.80;4.60;;;;;;;6.57;78.11;101787.63;5074578;28;20024;-81
2023/04/10 06:03:18;;;;;;;11.03;5.27;;;;;;;6.59;76.33;101783.38;5075613;28;20024;-82
2023/04/10 06:05:44;;;;;;;12.50;5.50;;;;;;;6.71;75.66;101789.59;5075264;28;20052;-82
2023/04/10 06:08:10;;;;;;;12.90;5.57;;;;;;;6.71;76.35;101787.00;5074981;28;20102;-82
2023/04/10 06:10:35;;;;;;;9.55;4.57;;;;;;;6.84;76.42;101798.38;5074901;28;20025;-79
2023/04/10 06:13:00;;;;;;;9.05;4.40;;;;;;;6.92;76.76;101800.22;5075425;28;20105;-81
2023/04/10 06:15:26;;;;;;;9.37;4.10;;;;;;;7.00;76.57;101797.78;5070017;28;20388;-80
2023/04/10 06:17:52;;;;;;;6.65;3.70;;;;;;;7.07;76.78;101789.25;5073143;28;20020;-80
2023/04/10 06:20:18;;;;;;;5.93;3.45;;;;;;;7.13;76.86;101791.06;5075185;28;20028;-80
2023/04/10 06:22:43;;;;;;;7.03;3.60;;;;;;;7.20;75.74;101785.16;5073879;28;20025;-80
2023/04/10 06:25:08;;;;;;;7.47;4.13;;;;;;;7.25;76.90;101783.50;5074844;28;20025;-81
2023/04/10 06:27:34;;;;;;;6.90;3.93;;;;;;;7.32;76.96;101788.75;5073994;28;20048;-80
2023/04/10 06:30:00;;;;;;;6.70;3.67;;;;;;;7.38;77.11;101775.91;5074683;28;20060;-86
2023/04/10 06:32:25;;;;;;;6.90;3.60;;;;;;;7.43;76.95;101763.91;5072472;28;20427;-77
2023/04/10 06:34:50;;;;;;;8.25;4.43;;;;;;;7.63;75.04;101759.00;5073814;28;20021;-88
2023/04/10 06:37:15;;;;;;;12.87;6.17;;;;;;;7.61;74.60;101759.84;5075152;28;20119;-87
2023/04/10 06:39:41;;;;;;;11.67;5.87;;;;;;;7.60;74.73;101755.50;5074252;28;20025;-87
2023/04/10 06:42:06;;;;;;;11.85;5.70;;;;;;;7.71;74.15;101748.75;5075022;28;20036;-86
2023/04/10 06:44:31;;;;;;;13.90;6.67;;;;;;;7.74;74.25;101746.22;5063315;28;20395;-87
2023/04/10 06:46:57;;;;;;;13.40;6.53;;;;;;;7.79;74.07;101741.94;5056487;28;20043;-87
2023/04/10 06:49:23;;;;;;;14.20;6.80;;;;;;;7.80;74.27;101725.59;5057066;28;20468;-87
2023/04/10 06:51:48;;;;;;;14.70;7.40;;;;;;;7.94;72.91;101735.19;5074548;28;20476;-87
2023/04/10 06:54:13;;;;;;;14.83;7.00;;;;;;;7.95;73.20;101717.13;5074626;28;20287;-86
2023/04/10 06:56:42;;;;;;;14.53;7.30;;;;;;;8.10;72.84;101721.59;5074290;28;20033;-88
2023/04/10 06:59:07;;;;;;;17.67;8.27;;;;;;;8.26;72.37;101717.41;5074743;28;20052;-84
2023/04/10 07:01:35;;;;;;;15.40;7.60;;;;;;;8.13;72.40;101715.56;5060820;28;20138;-79
2023/04/10 07:04:00;;;;;;;14.93;7.40;;;;;;;8.21;72.10;101713.91;5052974;28;20020;-75
2023/04/10 07:06:26;;;;;;;13.70;6.97;;;;;;;8.28;72.41;101713.09;5052899;28;20492;-81
2023/04/10 07:08:51;;;;;;;13.23;6.53;;;;;;;8.35;72.50;101711.44;5054244;28;20029;-81
2023/04/10 07:11:16;;;;;;;12.77;6.70;;;;;;;8.46;71.67;101707.19;5053671;28;20033;-81
2023/04/10 07:13:42;;;;;;;14.63;7.27;;;;;;;8.54;71.34;101709.03;5054547;28;20435;-81
2023/04/10 07:16:08;;;;;;;13.50;6.70;;;;;;;8.53;72.12;101700.38;5074095;28;20104;-82
2023/04/10 07:18:34;;;;;;;14.57;7.05;;;;;;;8.58;71.31;101688.38;5073569;28;20060;-82
2023/04/10 07:21:00;;;;;;;14.05;6.80;;;;;;;8.64;71.41;101693.56;5071895;28;20033;-82
2023/04/10 07:23:26;;;;;;;16.30;8.07;;;;;;;8.83;70.25;101691.09;5068630;28;20032;-82
2023/04/10 07:25:51;;;;;;;14.05;6.93;;;;;;;8.77;71.56;101686.75;5071555;28;20028;-83
2023/04/10 07:28:16;;;;;;;14.67;7.37;;;;;;;8.90;70.06;101671.25;5059535;28;20036;-82
2023/04/10 07:30:42;;;;;;;12.40;6.50;;;;;;;8.85;71.00;101658.31;5065357;28;20093;-82
2023/04/10 07:33:07;;;;;;;11.80;6.00;;;;;;;8.94;71.16;101673.03;5053154;28;20041;-82
2023/04/10 07:35:32;;;;;;;13.00;6.10;;;;;;;8.93;70.49;101651.47;5060498;28;20464;-83
2023/04/10 07:37:58;;;;;;;12.87;6.40;;;;;;;9.10;69.83;101669.66;5073096;28;20024;-83
2023/04/10 07:40:23;;;;;;;14.77;7.53;;;;;;;9.31;68.71;101659.34;5072724;28;20024;-83
2023/04/10 07:42:49;;;;;;;15.00;7.40;;;;;;;9.32;68.47;101658.50;5073763;28;20581;-84
2023/04/10 07:45:14;;;;;;;13.48;6.68;;;;;;;9.37;69.63;101652.47;5073263;28;20020;-85
2023/04/10 07:47:40;;;;;;;10.87;6.07;;;;;;;9.49;68.85;101648.16;5065965;28;20550;-84
2023/04/10 07:50:06;;;;;;;14.03;6.60;;;;;;;9.60;68.64;101636.09;5053121;28;20021;-84
2023/04/10 07:52:31;;;;;;;14.10;6.55;;;;;;;9.79;68.19;101638.72;5052295;28;20473;-83
2023/04/10 07:54:57;;;;;;;11.30;6.17;;;;;;;9.92;69.18;101644.78;5053169;28;20036;-85
2023/04/10 07:57:42;;;;;;;13.13;6.67;;;;;;;10.14;66.59;101636.13;5053019;28;20025;-83
2023/04/10 08:00:08;;;;;;;13.32;6.68;;;;;;;10.34;66.59;101633.53;5052722;28;20496;-84
2023/04/10 08:02:33;;;;;;;13.17;6.90;;;;;;;10.50;65.36;101618.81;5052764;28;20045;-84
2023/04/10 08:04:59;;;;;;;15.00;7.37;;;;;;;10.77;64.58;101614.38;5053296;28;20437;-83
2023/04/10 08:07:24;;;;;;;15.70;7.77;;;;;;;11.04;63.84;101609.94;5051764;28;20036;-83
2023/04/10 08:09:49;;;;;;;13.90;7.00;;;;;;;11.16;63.31;101614.19;5052454;28;20028;-85
2023/04/10 08:12:15;;;;;;;12.03;6.30;;;;;;;11.27;63.50;101619.34;5052687;28;20029;-86
2023/04/10 08:14:40;;;;;;;11.77;6.17;;;;;;;11.35;62.89;101614.97;5064740;28;20115;-83
2023/04/10 08:17:05;;;;;;;12.70;6.40;;;;;;;11.45;62.68;101613.19;5072704;28;20044;-84
2023/04/10 08:19:31;;;;;;;11.93;6.13;;;;;;;11.46;62.19;101596.72;5072402;28;20029;-84
2023/04/10 08:21:56;;;;;;;10.83;6.00;;;;;;;11.49;62.00;101598.41;5071939;28;20111;-83
2023/04/10 08:24:21;;;;;;;12.00;6.63;;;;;;;11.52;62.65;101603.63;5072741;28;20024;-83
2023/04/10 08:26:49;;;;;;;9.60;5.30;;;;;;;11.58;63.46;101603.56;5072655;28;20051;-84
2023/04/10 08:29:15;;;;;;;10.18;5.10;;;;;;;11.61;63.37;101600.06;5071495;28;20093;-84
2023/04/10 08:31:40;;;;;;;10.67;5.50;;;;;;;11.65;63.24;101596.56;5072153;28;20016;-83
2023/04/10 08:34:05;;;;;;;10.87;5.47;;;;;;;11.72;61.65;101595.63;5072099;28;20488;-84
2023/04/10 08:36:31;;;;;;;10.43;5.47;;;;;;;11.78;61.27;101593.00;5071914;28;20029;-83
2023/04/10 08:38:56;;;;;;;10.97;5.83;;;;;;;11.86;62.47;101601.59;5072369;28;20368;-84
2023/04/10 08:41:21;;;;;;;11.17;5.70;;;;;;;11.96;62.01;101599.78;5051303;28;20068;-84
2023/04/10 08:43:48;;;;;;;11.63;6.10;;;;;;;12.00;61.19;101587.66;5051394;28;20021;-83
2023/04/10 08:46:14;;;;;;;14.15;6.72;;;;;;;12.04;59.34;101582.41;5052621;28;20075;-84
2023/04/10 08:48:52;;;;;;;12.80;6.85;;;;;;;12.13;60.55;101580.56;5051716;28;20037;-84
2023/04/10 08:51:26;;;;;;;11.02;6.00;;;;;;;12.10;59.81;101576.28;5052581;28;20090;-84
2023/04/10 08:53:57;;;;;;;10.73;6.07;;;;;;;12.16;60.74;101583.16;5052130;28;20032;-84
2023/04/10 08:56:23;;;;;;;10.02;5.60;;;;;;;12.18;61.12;101577.03;5051707;28;20028;-84
2023/04/10 08:58:50;;;;;;;11.75;6.30;;;;;;;12.40;60.35;101586.38;5052384;28;20020;-84
2023/04/10 09:01:18;;;;;;;11.13;6.07;;;;;;;12.31;60.67;101580.41;5052097;28;20120;-84
2023/04/10 09:03:46;;;;;;;11.27;5.80;;;;;;;12.39;60.82;101579.44;5051122;28;20025;-84
2023/04/10 09:06:11;;;;;;;10.27;5.80;;;;;;;12.42;61.05;101582.03;5052158;28;20501;-84
2023/04/10 09:08:37;;;;;;;9.57;5.10;;;;;;;12.44;61.91;101581.13;5052380;28;20040;-85
2023/04/10 09:11:04;;;;;;;11.97;6.50;;;;;;;12.55;60.69;101577.53;5051442;28;20025;-84
2023/04/10 09:13:35;;;;;;;13.30;6.57;;;;;;;12.50;60.20;101564.56;5051584;28;20071;-84
2023/04/10 09:16:01;;;;;;;11.70;6.00;;;;;;;12.56;61.28;101566.22;5052425;28;20441;-84
2023/04/10 09:18:43;;;;;;;11.93;5.97;;;;;;;12.72;60.11;101572.13;5051598;28;20025;-84
2023/04/10 09:21:10;;;;;;;11.07;5.68;;;;;;;12.67;59.59;101562.59;5052003;28;20025;-84
2023/04/10 09:23:35;;;;;;;12.45;6.05;;;;;;;12.76;59.73;101558.19;5052547;28;20025;-84
2023/04/10 09:26:04;;;;;;;9.50;5.47;;;;;;;12.73;60.62;101558.22;5055947;28;20025;-84
2023/04/10 09:28:30;;;;;;;10.82;5.57;;;;;;;12.77;60.48;101555.53;5055720;28;20140;-84
2023/04/10 09:30:55;;;;;;;10.97;5.93;;;;;;;12.87;60.47;101550.22;5056365;28;20517;-84
2023/04/10 09:33:29;;;;;;;10.47;5.67;;;;;;;12.94;59.79;101554.47;5054759;28;20032;-84
2023/04/10 09:36:00;;;;;;;11.07;5.78;;;;;;;12.94;60.35;101539.69;5056150;28;20449;-84
2023/04/10 09:38:25;;;;;;;13.38;6.50;;;;;;;13.04;58.62;101529.13;5067940;28;20115;-84
2023/04/10 09:41:04;;;;;;;11.97;6.17;;;;;;;12.96;59.65;101526.63;5075522;28;20100;-84
2023/04/10 09:43:30;;;;;;;12.20;6.15;;;;;;;12.97;59.45;101521.41;5075707;28;20028;-84
2023/04/10 09:45:56;;;;;;;8.53;5.13;;;;;;;13.02;58.53;101518.75;5075580;28;20066;-84
2023/04/10 09:48:23;;;;;;;10.77;5.75;;;;;;;13.07;59.62;101509.09;5075274;28;20024;-84
2023/04/10 09:50:49;;;;;;;10.52;5.60;;;;;;;13.11;60.02;101502.97;5075662;28;20027;-84
2023/04/10 09:53:19;;;;;;;11.13;5.90;;;;;;;13.19;58.88;101499.38;5074846;28;20017;-84
2023/04/10 09:55:46;;;;;;;11.13;6.05;;;;;;;13.12;58.56;101493.38;5075532;28;20044;-84
2023/04/10 09:58:12;;;;;;;10.63;5.68;;;;;;;13.17;59.13;101499.41;5075656;28;20020;-84
2023/04/10 10:00:44;;;;;;;10.65;5.82;;;;;;;13.25;59.02;101500.13;5074798;28;20025;-84
2023/04/10 10:03:14;;;;;;;9.73;5.10;;;;;;;13.20;60.08;101503.69;5075514;28;20037;-84
2023/04/10 10:05:42;;;;;;;8.73;4.82;;;;;;;13.28;59.94;101494.88;5074476;28;20032;-84
2023/04/10 10:08:10;;;;;;;9.00;5.30;;;;;;;13.34;59.88;101493.06;5064294;28;20013;-84
2023/04/10 10:10:40;;;;;;;11.07;6.00;;;;;;;13.52;58.72;101494.50;5054947;28;20025;-84
2023/04/10 10:13:08;;;;;;;9.82;5.30;;;;;;;13.55;59.80;101486.66;5054859;28;20036;-84
2023/04/10 10:15:43;;;;;;;9.95;5.57;;;;;;;13.73;59.57;101491.56;5055042;28;20070;-84
2023/04/10 10:18:38;;;;;;;8.85;4.88;;;;;;;13.92;58.63;101478.16;5055219;28;20031;-84
2023/04/10 10:21:04;;;;;;;9.80;5.18;;;;;;;13.99;59.01;101456.25;5054749;28;20028;-84
2023/04/10 10:23:33;;;;;;;9.07;5.30;;;;;;;14.07;56.31;101457.88;5054657;28;20048;-84
2023/04/10 10:26:00;;;;;;;9.40;5.40;;;;;;;14.17;57.51;101462.03;5054878;28;20450;-84
2023/04/10 10:28:26;;;;;;;;;;;;;;;14.28;56.58;101448.72;5054443;28;20086;-84
2023/04/10 10:30:52;;;;;;;;;;;;;;;14.33;57.03;101450.34;5055296;28;19912;-85
2023/04/10 10:33:17;;;;;;;8.90;5.10;;;;;;;14.56;56.33;101451.59;5055106;28;19912;-84
2023/04/10 10:35:43;;;;;;;9.00;5.10;;;;;;;14.81;53.86;101446.69;5052170;28;20106;-83
2023/04/10 10:38:12;;;;;;;7.30;4.80;;;;;;;14.86;54.56;101438.75;5064375;28;20086;-82
2023/04/10 10:40:59;;;;;;;9.07;5.00;;;;;;;15.03;55.22;101433.13;5054278;28;20017;-83
2023/04/10 10:43:46;;;;;;;6.32;4.18;;;;;;;15.09;54.84;101426.88;5054062;28;20029;-83
2023/04/10 10:46:31;;;;;;;7.75;4.60;;;;;;;15.24;54.28;101423.03;5054231;28;20457;-83
2023/04/10 10:48:57;;;;;;;8.05;4.72;;;;;;;15.50;52.24;101413.63;5054133;28;20447;-84
2023/04/10 10:51:23;;;;;;;10.45;5.20;;;;;;;15.38;52.27;101414.81;5054054;28;20032;-83
2023/04/10 10:53:48;;;;;;;7.33;4.43;;;;;;;15.37;53.32;101420.97;5055017;28;20033;-83
2023/04/10 10:56:19;;;;;;;8.23;4.57;;;;;;;15.44;52.85;101402.44;5053212;28;20029;-83
2023/04/10 10:58:54;;;;;;;6.63;4.55;;;;;;;15.50;53.40;101398.81;5053949;28;20117;-84
2023/04/10 11:01:21;;;;;;;6.55;4.00;;;;;;;15.63;54.68;101388.84;5053861;28;20056;-83
2023/04/10 11:03:46;;;;;;;;;;;;;;;15.82;52.60;101390.97;5054185;28;20052;-84
2023/04/10 11:06:26;;;;;;;6.77;4.47;;;;;;;15.84;51.07;101391.75;5055217;28;20346;-83
2023/04/10 11:08:51;;;;;;;6.47;4.03;;;;;;;15.88;51.90;101388.19;5053504;28;20362;-83
2023/04/10 11:11:18;;;;;;;8.83;4.47;;;;;;;16.12;50.86;101397.09;5054393;28;20100;-83
2023/04/10 11:13:56;;;;;;;6.97;4.40;;;;;;;16.12;50.95;101393.63;5054176;28;20025;-83
2023/04/10 11:16:40;;;;;;;7.82;4.30;;;;;;;16.26;51.64;101382.72;5053592;28;20044;-84
2023/04/10 11:19:08;;;;;;;6.35;4.07;;;;;;;16.41;50.83;101368.28;5053427;28;20032;-83
2023/04/10 11:21:34;;;;;;;6.60;4.25;;;;;;;16.50;51.47;101368.00;5053831;28;20026;-83
2023/04/10 11:23:59;;;;;;;5.60;3.85;;;;;;;16.59;50.84;101365.09;5053705;28;20054;-84
2023/04/10 11:26:43;;;;;;;6.37;3.83;;;;;;;16.67;50.83;101370.94;5053708;28;20074;-84
2023/04/10 11:29:17;;;;;;;5.65;3.90;;;;;;;16.66;50.77;101352.66;5053395;28;20558;-84
2023/04/10 11:31:43;;;;;;;6.88;4.15;;;;;;;16.77;49.10;101347.94;5052984;28;20040;-85